WXM80 ListenWXM80 Stop

You find our weather info also at:

UK Metoffice

WeatherCloud

Weather Underground

Northeastern Weather Network

AWEKAS

Citizen Weather Observer Program (CWOP)

HAMweather, WeatherForYou, PWS Weather


Weather Underground History page Text

Daily Summary for November 15, 2017 Units:  English    Metric   Both
« Previous Day
Next Day »
Daily Weekly Monthly Yearly Custom
  High: Low: Average:
Temperature: 48.7 °F 39.6 °F 44.2 °F
Dew Point: 40.4 °F 35.1 °F 37.8 °F
Humidity: 86 % 69 % 78 %
Wind Speed: 7.8 mph 0.0 mph 2.5 mph
Wind Gust: 11.5 mph - -
Wind:- - East
Pressure: 30.31 in 30.05 in -
Precipitation: 0.00 in    
Historical Graphs
 
 
Tabular Data for November 15, 2017
Time Temperature Dew Point Pressure Wind Wind Speed Wind Gust Humidity Rainfall Rate (Hourly)
00:03 41.9 °F 36.8 °F 30.29 in ENE 4.9 mph 8.1 mph 82 % 0.00 in
00:08 41.9 °F 36.8 °F 30.29 in NE 4.3 mph 10.0 mph 82 % 0.00 in
00:13 41.9 °F 36.8 °F 30.29 in ENE 4.7 mph 8.1 mph 82 % 0.00 in
00:18 42.0 °F 36.9 °F 30.29 in ENE 3.7 mph 5.0 mph 82 % 0.00 in
00:23 42.0 °F 36.9 °F 30.29 in ENE 4.6 mph 6.9 mph 82 % 0.00 in
00:28 42.0 °F 36.9 °F 30.29 in NE 7.3 mph 9.0 mph 82 % 0.00 in
00:33 42.1 °F 37.0 °F 30.29 in ENE 4.4 mph 6.9 mph 82 % 0.00 in
00:39 42.2 °F 37.1 °F 30.29 in ENE 3.7 mph 8.1 mph 82 % 0.00 in
00:44 42.2 °F 37.1 °F 30.29 in ENE 6.0 mph 8.1 mph 82 % 0.00 in
00:49 42.3 °F 37.2 °F 30.29 in ENE 4.3 mph 8.1 mph 82 % 0.00 in
00:54 42.3 °F 37.2 °F 30.29 in ENE 5.5 mph 8.1 mph 82 % 0.00 in
00:59 42.4 °F 37.3 °F 30.29 in ENE 5.0 mph 8.1 mph 82 % 0.00 in
01:04 42.5 °F 37.4 °F 30.29 in ENE 4.0 mph 8.1 mph 82 % 0.00 in
01:09 42.5 °F 37.4 °F 30.29 in NE 2.6 mph 7.0 mph 82 % 0.00 in
01:14 42.5 °F 37.4 °F 30.29 in ENE 4.3 mph 8.1 mph 82 % 0.00 in
01:19 42.5 °F 37.1 °F 30.29 in NE 2.5 mph 4.6 mph 81 % 0.00 in
01:24 42.5 °F 37.4 °F 30.29 in ENE 3.3 mph 4.6 mph 82 % 0.00 in
01:29 42.6 °F 37.5 °F 30.29 in NNE 2.3 mph 6.9 mph 82 % 0.00 in
01:34 42.5 °F 37.4 °F 30.29 in NE 0.6 mph 4.6 mph 82 % 0.00 in
01:39 42.5 °F 37.4 °F 30.29 in North 4.7 mph 9.2 mph 82 % 0.00 in
01:44 42.6 °F 37.8 °F 30.29 in NNE 3.7 mph 6.9 mph 83 % 0.00 in
01:49 42.5 °F 37.7 °F 30.30 in NNE 2.9 mph 6.9 mph 83 % 0.00 in
01:54 42.5 °F 37.7 °F 30.30 in NNE 2.8 mph 6.9 mph 83 % 0.00 in
01:59 42.4 °F 37.6 °F 30.29 in ENE 4.7 mph 9.2 mph 83 % 0.00 in
02:04 42.4 °F 37.6 °F 30.29 in NE 4.1 mph 6.9 mph 83 % 0.00 in
02:07 42.3 °F 37.5 °F 30.29 in NNE 2.3 mph 4.6 mph 83 % 0.00 in
02:12 42.2 °F 37.4 °F 30.29 in NNE 4.3 mph 9.2 mph 83 % 0.00 in
02:17 42.2 °F 37.4 °F 30.29 in North 4.8 mph 7.0 mph 83 % 0.00 in
02:22 42.1 °F 37.3 °F 30.29 in North 2.8 mph 5.0 mph 83 % 0.00 in
02:27 42.0 °F 37.2 °F 30.29 in NNE 4.0 mph 6.0 mph 83 % 0.00 in
02:29 42.0 °F 37.2 °F 30.29 in NNE 3.4 mph 6.9 mph 83 % 0.00 in
02:34 41.9 °F 37.1 °F 30.29 in NE 1.8 mph 3.5 mph 83 % 0.00 in
02:39 41.8 °F 36.7 °F 30.28 in ENE 3.8 mph 6.9 mph 82 % 0.00 in
02:44 41.7 °F 36.9 °F 30.29 in North 3.3 mph 8.1 mph 83 % 0.00 in
02:49 41.7 °F 36.9 °F 30.29 in ENE 3.7 mph 3.7 mph 83 % 0.00 in
02:54 41.6 °F 36.8 °F 30.29 in ENE 3.2 mph 6.9 mph 83 % 0.00 in
02:59 41.5 °F 36.7 °F 30.29 in NE 1.5 mph 3.5 mph 83 % 0.00 in
03:04 41.5 °F 36.7 °F 30.29 in ENE 3.9 mph 8.1 mph 83 % 0.00 in
03:09 41.4 °F 36.6 °F 30.29 in North 0.4 mph 5.8 mph 83 % 0.00 in
03:14 41.4 °F 36.6 °F 30.29 in NNE 5.9 mph 8.1 mph 83 % 0.00 in
03:19 41.3 °F 36.5 °F 30.29 in NE 1.0 mph 2.3 mph 83 % 0.00 in
03:24 41.3 °F 36.8 °F 30.29 in NNE 2.8 mph 4.6 mph 84 % 0.00 in
03:29 41.3 °F 36.8 °F 30.30 in NE 3.2 mph 4.6 mph 84 % 0.00 in
03:34 41.2 °F 36.7 °F 30.30 in ENE 2.3 mph 4.6 mph 84 % 0.00 in
03:39 41.2 °F 36.4 °F 30.29 in ENE 2.0 mph 3.5 mph 83 % 0.00 in
03:44 41.1 °F 36.3 °F 30.30 in North 2.3 mph 4.6 mph 83 % 0.00 in
03:49 41.1 °F 36.3 °F 30.29 in ENE 2.0 mph 3.5 mph 83 % 0.00 in
03:54 41.1 °F 36.3 °F 30.29 in NE 6.1 mph 10.4 mph 83 % 0.00 in
03:59 41.0 °F 36.2 °F 30.30 in NE 4.0 mph 6.9 mph 83 % 0.00 in
04:04 41.0 °F 36.2 °F 30.29 in NE 2.4 mph 3.5 mph 83 % 0.00 in
04:09 41.0 °F 36.2 °F 30.29 in ENE 4.5 mph 8.0 mph 83 % 0.00 in
04:14 41.0 °F 36.2 °F 30.30 in ENE 2.5 mph 4.0 mph 83 % 0.00 in
04:19 40.9 °F 36.1 °F 30.30 in ENE 2.9 mph 8.1 mph 83 % 0.00 in
04:25 40.9 °F 36.1 °F 30.30 in ENE 3.3 mph 6.9 mph 83 % 0.00 in
04:30 40.8 °F 35.7 °F 30.30 in NE 1.1 mph 4.6 mph 82 % 0.00 in
04:35 40.8 °F 35.7 °F 30.29 in ENE 3.1 mph 5.0 mph 82 % 0.00 in
04:40 40.8 °F 35.7 °F 30.30 in NNE 1.3 mph 9.2 mph 82 % 0.00 in
04:45 40.8 °F 35.7 °F 30.29 in ENE 3.6 mph 6.9 mph 82 % 0.00 in
04:50 40.7 °F 35.6 °F 30.30 in NE 4.5 mph 9.2 mph 82 % 0.00 in
04:55 40.7 °F 35.6 °F 30.30 in ENE 4.1 mph 6.9 mph 82 % 0.00 in
05:00 40.7 °F 35.6 °F 30.29 in ENE 4.1 mph 8.1 mph 82 % 0.00 in
05:05 40.6 °F 35.5 °F 30.29 in East 4.6 mph 8.1 mph 82 % 0.00 in
05:10 40.6 °F 35.5 °F 30.29 in NE 1.5 mph 3.5 mph 82 % 0.00 in
05:15 40.6 °F 35.5 °F 30.29 in NNE 2.2 mph 4.6 mph 82 % 0.00 in
05:20 40.5 °F 35.4 °F 30.29 in ENE 4.4 mph 6.9 mph 82 % 0.00 in
05:25 40.4 °F 35.3 °F 30.29 in ENE 3.2 mph 4.6 mph 82 % 0.00 in
05:30 40.4 °F 35.3 °F 30.30 in NE 2.9 mph 3.5 mph 82 % 0.00 in
05:35 40.3 °F 35.2 °F 30.30 in ENE 5.5 mph 8.1 mph 82 % 0.00 in
05:40 40.3 °F 35.2 °F 30.30 in ENE 1.6 mph 3.5 mph 82 % 0.00 in
05:45 40.3 °F 35.2 °F 30.30 in ENE 3.8 mph 5.0 mph 82 % 0.00 in
05:50 40.2 °F 35.1 °F 30.29 in NE 2.3 mph 6.9 mph 82 % 0.00 in
05:55 40.2 °F 35.4 °F 30.29 in ENE 1.9 mph 4.0 mph 83 % 0.00 in
06:00 40.2 °F 35.4 °F 30.29 in NNE 2.3 mph 9.2 mph 83 % 0.00 in
06:05 40.1 °F 35.4 °F 30.29 in NE 2.7 mph 5.0 mph 83 % 0.00 in
06:10 40.0 °F 35.3 °F 30.29 in NE 4.4 mph 7.0 mph 83 % 0.00 in
06:15 40.0 °F 35.3 °F 30.29 in NNE 1.9 mph 3.5 mph 83 % 0.00 in
06:20 39.9 °F 35.5 °F 30.29 in ENE 4.7 mph 6.9 mph 84 % 0.00 in
06:25 39.8 °F 35.4 °F 30.29 in NNE 2.0 mph 4.6 mph 84 % 0.00 in
06:30 39.8 °F 35.4 °F 30.29 in NE 4.7 mph 8.1 mph 84 % 0.00 in
06:35 39.8 °F 35.4 °F 30.29 in NNE 3.9 mph 5.8 mph 84 % 0.00 in
06:40 39.7 °F 35.3 °F 30.29 in NNE 1.4 mph 3.5 mph 84 % 0.00 in
06:46 39.7 °F 35.3 °F 30.29 in NNE 3.3 mph 4.0 mph 84 % 0.00 in
06:51 39.7 °F 35.6 °F 30.29 in NE 3.0 mph 10.0 mph 85 % 0.00 in
06:56 39.6 °F 35.5 °F 30.29 in NE 3.0 mph 8.0 mph 85 % 0.00 in
07:01 39.6 °F 35.5 °F 30.30 in NE 0.9 mph 3.5 mph 85 % 0.00 in
07:06 39.6 °F 35.5 °F 30.30 in ENE 4.1 mph 5.8 mph 85 % 0.00 in
07:11 39.6 °F 35.5 °F 30.29 in ENE 6.4 mph 8.0 mph 85 % 0.00 in
07:16 39.6 °F 35.2 °F 30.29 in ENE 4.6 mph 7.0 mph 84 % 0.00 in
07:21 39.7 °F 35.6 °F 30.29 in ENE 6.3 mph 9.2 mph 85 % 0.00 in
07:31 39.9 °F 35.8 °F 30.30 in ENE 5.4 mph 8.1 mph 85 % 0.00 in
07:36 40.0 °F 35.9 °F 30.30 in East 3.5 mph 7.0 mph 85 % 0.00 in
07:41 40.1 °F 36.0 °F 30.30 in NE 4.4 mph 8.1 mph 85 % 0.00 in
07:46 40.1 °F 36.0 °F 30.30 in ENE 4.9 mph 9.2 mph 85 % 0.00 in
07:51 40.2 °F 36.3 °F 30.30 in ENE 3.9 mph 6.9 mph 86 % 0.00 in
07:56 40.3 °F 36.4 °F 30.30 in ENE 1.8 mph 3.5 mph 86 % 0.00 in
08:01 40.5 °F 36.6 °F 30.30 in ENE 6.3 mph 9.2 mph 86 % 0.00 in
08:06 40.6 °F 36.7 °F 30.30 in NE 6.2 mph 8.1 mph 86 % 0.00 in
08:11 40.9 °F 36.7 °F 30.30 in ENE 5.0 mph 9.2 mph 85 % 0.00 in
08:16 41.0 °F 36.8 °F 30.30 in ENE 5.4 mph 10.4 mph 85 % 0.00 in
08:21 41.2 °F 37.0 °F 30.30 in ENE 5.1 mph 10.4 mph 85 % 0.00 in
08:26 41.3 °F 37.1 °F 30.30 in NE 5.3 mph 10.4 mph 85 % 0.00 in
08:31 41.4 °F 37.2 °F 30.31 in NE 5.8 mph 10.4 mph 85 % 0.00 in
08:36 41.6 °F 37.4 °F 30.31 in NE 6.8 mph 8.1 mph 85 % 0.00 in
08:41 41.8 °F 37.6 °F 30.31 in ENE 6.4 mph 11.5 mph 85 % 0.00 in
08:46 42.0 °F 37.8 °F 30.30 in ENE 5.4 mph 9.2 mph 85 % 0.00 in
08:51 42.2 °F 37.7 °F 30.30 in ENE 5.6 mph 9.2 mph 84 % 0.00 in
08:56 42.3 °F 37.8 °F 30.30 in ENE 7.7 mph 10.4 mph 84 % 0.00 in
09:01 42.4 °F 37.9 °F 30.30 in East 7.0 mph 10.4 mph 84 % 0.00 in
09:06 42.5 °F 37.7 °F 30.30 in NE 7.0 mph 8.1 mph 83 % 0.00 in
09:11 42.5 °F 38.0 °F 30.30 in ENE 6.3 mph 11.5 mph 84 % 0.00 in
09:16 42.5 °F 37.7 °F 30.29 in ENE 7.2 mph 11.5 mph 83 % 0.00 in
09:19 42.5 °F 37.7 °F 30.29 in NE 6.0 mph 8.1 mph 83 % 0.00 in
09:24 42.8 °F 38.3 °F 30.29 in ENE 6.9 mph 9.2 mph 84 % 0.00 in
09:29 42.9 °F 38.4 °F 30.30 in ENE 5.0 mph 8.1 mph 84 % 0.00 in
09:34 42.9 °F 38.1 °F 30.30 in NE 5.7 mph 9.0 mph 83 % 0.00 in
09:44 43.1 °F 38.3 °F 30.29 in ENE 4.9 mph 8.1 mph 83 % 0.00 in
09:49 43.4 °F 38.9 °F 30.29 in NE 5.7 mph 10.4 mph 84 % 0.00 in
09:54 43.7 °F 38.6 °F 30.28 in ENE 4.0 mph 9.2 mph 82 % 0.00 in
09:59 43.6 °F 38.8 °F 30.28 in ENE 3.1 mph 6.9 mph 83 % 0.00 in
10:04 43.5 °F 38.7 °F 30.29 in East 3.4 mph 5.8 mph 83 % 0.00 in
10:09 43.6 °F 39.1 °F 30.28 in ENE 6.4 mph 9.2 mph 84 % 0.00 in
10:14 43.7 °F 38.6 °F 30.29 in East 3.6 mph 8.1 mph 82 % 0.00 in
10:19 43.7 °F 38.3 °F 30.28 in NE 4.7 mph 6.9 mph 81 % 0.00 in
10:24 44.0 °F 38.2 °F 30.28 in East 6.8 mph 10.4 mph 80 % 0.00 in
10:29 44.1 °F 38.3 °F 30.28 in ENE 4.6 mph 11.5 mph 80 % 0.00 in
10:34 44.6 °F 39.4 °F 30.28 in ENE 3.9 mph 8.0 mph 82 % 0.00 in
10:39 45.3 °F 39.8 °F 30.27 in ENE 4.7 mph 6.9 mph 81 % 0.00 in
10:44 45.6 °F 39.1 °F 30.27 in East 3.3 mph 8.1 mph 78 % 0.00 in
10:55 46.5 °F 40.0 °F 30.26 in ENE 3.5 mph 8.1 mph 78 % 0.00 in
11:00 46.5 °F 39.7 °F 30.26 in ENE 2.4 mph 4.6 mph 77 % 0.00 in
11:05 46.4 °F 39.9 °F 30.26 in ENE 4.2 mph 8.0 mph 78 % 0.00 in
11:10 46.3 °F 39.5 °F 30.25 in East 2.4 mph 5.0 mph 77 % 0.00 in
11:15 46.4 °F 39.9 °F 30.25 in East 0.9 mph 3.5 mph 78 % 0.00 in
11:18 46.5 °F 39.7 °F 30.25 in ENE 7.8 mph 9.2 mph 77 % 0.00 in
11:23 46.5 °F 39.0 °F 30.24 in ENE 1.6 mph 2.3 mph 75 % 0.00 in
11:28 46.6 °F 39.1 °F 30.25 in NE 1.1 mph 3.5 mph 75 % 0.00 in
11:33 46.7 °F 39.2 °F 30.24 in East 3.4 mph 8.1 mph 75 % 0.00 in
11:38 46.6 °F 38.4 °F 30.24 in ENE 2.9 mph 4.6 mph 73 % 0.00 in
11:43 46.6 °F 38.8 °F 30.24 in ENE 2.3 mph 5.0 mph 74 % 0.00 in
11:48 46.7 °F 38.9 °F 30.24 in East 2.5 mph 6.0 mph 74 % 0.00 in
11:50 46.7 °F 38.9 °F 30.24 in ENE 3.6 mph 5.8 mph 74 % 0.00 in
11:55 46.7 °F 39.2 °F 30.23 in ENE 1.8 mph 3.5 mph 75 % 0.00 in
12:00 47.2 °F 40.0 °F 30.23 in ENE 2.7 mph 5.8 mph 76 % 0.00 in
12:05 47.6 °F 40.4 °F 30.23 in ENE 1.7 mph 3.5 mph 76 % 0.00 in
12:10 47.7 °F 39.8 °F 30.22 in ENE 2.9 mph 9.2 mph 74 % 0.00 in
12:15 47.5 °F 39.3 °F 30.22 in ENE 4.4 mph 8.1 mph 73 % 0.00 in
12:20 47.5 °F 38.9 °F 30.21 in ENE 1.3 mph 6.9 mph 72 % 0.00 in
12:25 47.3 °F 38.4 °F 30.21 in ENE 4.2 mph 7.0 mph 71 % 0.00 in
12:30 47.4 °F 39.2 °F 30.21 in ENE 4.0 mph 6.9 mph 73 % 0.00 in
12:35 47.5 °F 38.9 °F 30.21 in NE 1.7 mph 3.5 mph 72 % 0.00 in
12:40 47.4 °F 38.5 °F 30.20 in ENE 5.8 mph 8.1 mph 71 % 0.00 in
12:45 47.4 °F 38.8 °F 30.20 in ENE 2.3 mph 3.5 mph 72 % 0.00 in
12:50 47.3 °F 38.7 °F 30.20 in ENE 4.9 mph 6.9 mph 72 % 0.00 in
12:55 47.2 °F 38.6 °F 30.20 in NE 2.6 mph 5.8 mph 72 % 0.00 in
13:00 47.2 °F 39.0 °F 30.21 in ENE 0.1 mph 1.2 mph 73 % 0.00 in
13:05 47.3 °F 39.1 °F 30.20 in ENE 2.9 mph 4.0 mph 73 % 0.00 in
13:10 47.4 °F 38.8 °F 30.20 in ENE 1.0 mph 5.0 mph 72 % 0.00 in
13:16 47.5 °F 39.0 °F 30.19 in ENE 2.0 mph 7.0 mph 72 % 0.00 in
13:21 47.7 °F 38.8 °F 30.19 in ENE 6.0 mph 9.0 mph 71 % 0.00 in
13:25 48.0 °F 39.0 °F 30.19 in ENE 3.8 mph 3.8 mph 71 % 0.00 in
13:31 48.3 °F 39.3 °F 30.19 in ENE 3.0 mph 8.0 mph 71 % 0.00 in
13:35 48.6 °F 39.6 °F 30.18 in ENE 3.0 mph 7.0 mph 71 % 0.00 in
13:40 48.7 °F 39.4 °F 30.18 in ENE 3.0 mph 8.0 mph 70 % 0.00 in
13:46 48.7 °F 39.0 °F 30.18 in ENE 6.0 mph 9.0 mph 69 % 0.00 in
13:51 48.5 °F 39.1 °F 30.18 in ENE 2.0 mph 5.0 mph 70 % 0.00 in
13:55 48.3 °F 39.0 °F 30.17 in ENE 5.0 mph 8.0 mph 70 % 0.00 in
14:01 48.3 °F 39.0 °F 30.17 in ENE 4.0 mph 6.9 mph 70 % 0.00 in
14:06 48.3 °F 39.0 °F 30.17 in ENE 2.1 mph 4.6 mph 70 % 0.00 in
14:11 48.3 °F 39.0 °F 30.17 in ENE 0.8 mph 2.3 mph 70 % 0.00 in
14:16 48.2 °F 38.9 °F 30.17 in ENE 3.0 mph 4.6 mph 70 % 0.00 in
14:21 48.1 °F 38.8 °F 30.17 in ENE 3.4 mph 5.0 mph 70 % 0.00 in
14:26 47.9 °F 38.9 °F 30.17 in ENE 2.7 mph 7.0 mph 71 % 0.00 in
14:31 47.8 °F 39.2 °F 30.18 in NE 2.9 mph 4.0 mph 72 % 0.00 in
14:36 47.7 °F 39.1 °F 30.18 in ENE 0.2 mph 1.2 mph 72 % 0.00 in
14:41 47.7 °F 39.1 °F 30.17 in ENE 0.8 mph 1.2 mph 72 % 0.00 in
14:46 47.6 °F 39.0 °F 30.17 in Calm   3.5 mph 72 % 0.00 in
14:51 47.6 °F 39.0 °F 30.17 in ENE 0.1 mph 2.3 mph 72 % 0.00 in
14:56 47.5 °F 38.6 °F 30.17 in Calm   1.2 mph 71 % 0.00 in
15:01 47.5 °F 38.9 °F 30.17 in ENE 0.5 mph 1.2 mph 72 % 0.00 in
15:06 47.6 °F 39.0 °F 30.17 in Calm     72 % 0.00 in
15:11 47.7 °F 39.1 °F 30.16 in ENE 0.1 mph 2.0 mph 72 % 0.00 in
15:16 47.8 °F 38.8 °F 30.16 in East 0.2 mph 1.2 mph 71 % 0.00 in
15:21 47.8 °F 38.8 °F 30.16 in Calm     71 % 0.00 in
15:26 47.7 °F 38.8 °F 30.16 in East 0.8 mph 2.3 mph 71 % 0.00 in
15:32 47.6 °F 38.7 °F 30.16 in Calm   1.2 mph 71 % 0.00 in
15:37 47.6 °F 38.7 °F 30.17 in Calm     71 % 0.00 in
15:42 47.5 °F 38.6 °F 30.17 in Calm     71 % 0.00 in
15:47 47.4 °F 38.8 °F 30.16 in Calm     72 % 0.00 in
15:52 47.3 °F 39.1 °F 30.16 in East 0.6 mph 2.3 mph 73 % 0.00 in
15:57 47.1 °F 38.9 °F 30.17 in Calm     73 % 0.00 in
16:02 47.0 °F 38.8 °F 30.17 in Calm     73 % 0.00 in
16:07 47.0 °F 38.8 °F 30.17 in Calm     73 % 0.00 in
16:12 46.9 °F 38.7 °F 30.17 in Calm     73 % 0.00 in
16:17 46.8 °F 38.6 °F 30.17 in Calm     73 % 0.00 in
16:22 46.7 °F 38.5 °F 30.17 in Calm     73 % 0.00 in
16:27 46.5 °F 38.7 °F 30.17 in Calm     74 % 0.00 in
16:32 46.4 °F 38.6 °F 30.17 in Calm     74 % 0.00 in
16:37 46.3 °F 38.5 °F 30.16 in Calm     74 % 0.00 in
16:42 46.1 °F 38.3 °F 30.16 in Calm     74 % 0.00 in
16:47 46.0 °F 38.5 °F 30.16 in East 0.1 mph 1.2 mph 75 % 0.00 in
16:52 45.9 °F 38.4 °F 30.16 in Calm   1.2 mph 75 % 0.00 in
16:57 45.8 °F 38.3 °F 30.16 in Calm   1.2 mph 75 % 0.00 in
17:00 45.7 °F 38.2 °F 30.16 in East 0.1 mph 1.2 mph 75 % 0.00 in
17:05 45.6 °F 38.1 °F 30.16 in East 0.5 mph 2.3 mph 75 % 0.00 in
17:07 45.6 °F 38.1 °F 30.16 in East 0.6 mph 1.2 mph 75 % 0.00 in
17:12 45.6 °F 38.1 °F 30.16 in East 0.3 mph 1.2 mph 75 % 0.00 in
17:17 45.5 °F 38.0 °F 30.15 in East 0.5 mph 1.2 mph 75 % 0.00 in
17:22 45.4 °F 37.6 °F 30.15 in East 0.3 mph 2.3 mph 74 % 0.00 in
17:27 45.4 °F 37.6 °F 30.16 in Calm   1.2 mph 74 % 0.00 in
17:32 45.4 °F 37.6 °F 30.15 in Calm   1.2 mph 74 % 0.00 in
17:37 45.3 °F 37.5 °F 30.16 in ESE 0.3 mph 2.3 mph 74 % 0.00 in
17:42 45.3 °F 37.2 °F 30.15 in ESE 0.5 mph 2.3 mph 73 % 0.00 in
17:47 45.3 °F 37.5 °F 30.15 in ESE 0.2 mph 1.2 mph 74 % 0.00 in
17:52 45.2 °F 37.4 °F 30.16 in Calm   1.2 mph 74 % 0.00 in
17:57 45.2 °F 37.4 °F 30.16 in Calm     74 % 0.00 in
18:02 45.2 °F 37.4 °F 30.16 in SE 0.5 mph 3.5 mph 74 % 0.00 in
18:07 45.1 °F 37.3 °F 30.15 in SE 0.2 mph 2.0 mph 74 % 0.00 in
18:12 45.0 °F 36.9 °F 30.15 in SE 0.3 mph 3.5 mph 73 % 0.00 in
18:17 45.0 °F 36.9 °F 30.15 in ESE 2.5 mph 6.9 mph 73 % 0.00 in
18:22 45.0 °F 36.9 °F 30.15 in Calm     73 % 0.00 in
18:27 44.9 °F 36.8 °F 30.15 in Calm     73 % 0.00 in
18:32 44.9 °F 37.1 °F 30.15 in SE 0.9 mph 2.3 mph 74 % 0.00 in
18:37 44.9 °F 36.8 °F 30.15 in Calm     73 % 0.00 in
18:42 44.9 °F 36.8 °F 30.15 in SE 0.1 mph 1.2 mph 73 % 0.00 in
18:47 44.8 °F 37.0 °F 30.15 in SE 0.1 mph 1.2 mph 74 % 0.00 in
18:52 44.8 °F 37.0 °F 30.15 in Calm     74 % 0.00 in
18:57 44.8 °F 37.0 °F 30.15 in Calm     74 % 0.00 in
19:02 44.7 °F 36.9 °F 30.15 in Calm     74 % 0.00 in
19:07 44.7 °F 37.3 °F 30.15 in Calm     75 % 0.00 in
19:12 44.7 °F 37.3 °F 30.14 in Calm     75 % 0.00 in
19:18 44.7 °F 37.3 °F 30.14 in Calm     75 % 0.00 in
19:23 44.7 °F 37.3 °F 30.14 in Calm     75 % 0.00 in
19:28 44.7 °F 37.3 °F 30.14 in SE 0.2 mph 1.2 mph 75 % 0.00 in
19:33 44.7 °F 37.3 °F 30.14 in SE 0.1 mph 3.5 mph 75 % 0.00 in
19:38 44.7 °F 37.3 °F 30.14 in Calm     75 % 0.00 in
19:43 44.7 °F 37.3 °F 30.13 in Calm     75 % 0.00 in
19:48 44.7 °F 37.6 °F 30.13 in Calm     76 % 0.00 in
19:53 44.7 °F 37.6 °F 30.12 in Calm     76 % 0.00 in
19:58 44.7 °F 37.6 °F 30.12 in SSE 0.1 mph 1.2 mph 76 % 0.00 in
20:03 44.7 °F 37.6 °F 30.12 in SE 0.5 mph 3.5 mph 76 % 0.00 in
20:08 44.8 °F 37.7 °F 30.12 in SE 0.9 mph 3.0 mph 76 % 0.00 in
20:13 44.9 °F 37.8 °F 30.11 in ESE 0.6 mph 3.5 mph 76 % 0.00 in
20:18 44.9 °F 37.8 °F 30.11 in SE 2.7 mph 5.8 mph 76 % 0.00 in
20:21 44.9 °F 37.8 °F 30.11 in SE 1.0 mph 6.0 mph 76 % 0.00 in
20:26 45.0 °F 38.3 °F 30.11 in SE 2.0 mph 8.0 mph 77 % 0.00 in
20:31 45.1 °F 38.3 °F 30.10 in SE 2.9 mph 4.6 mph 77 % 0.00 in
20:36 45.2 °F 38.4 °F 30.11 in SE 2.3 mph 5.8 mph 77 % 0.00 in
20:41 45.3 °F 38.5 °F 30.10 in SE 1.0 mph 5.0 mph 77 % 0.00 in
20:46 45.4 °F 38.9 °F 30.10 in SE 1.0 mph 6.0 mph 78 % 0.00 in
20:51 45.5 °F 38.7 °F 30.10 in SE 2.0 mph 7.0 mph 77 % 0.00 in
20:56 45.6 °F 38.8 °F 30.10 in SE 3.0 mph 6.0 mph 77 % 0.00 in
21:01 45.8 °F 39.0 °F 30.09 in SE 2.9 mph 6.9 mph 77 % 0.00 in
21:06 45.8 °F 39.0 °F 30.10 in SE 2.5 mph 4.0 mph 77 % 0.00 in
21:11 45.9 °F 39.1 °F 30.10 in SE 1.7 mph 10.4 mph 77 % 0.00 in
21:16 46.0 °F 39.2 °F 30.09 in SSE 1.4 mph 3.5 mph 77 % 0.00 in
21:21 46.1 °F 39.3 °F 30.09 in SSE 3.0 mph 4.0 mph 77 % 0.00 in
21:26 46.1 °F 39.3 °F 30.09 in SE 1.6 mph 4.6 mph 77 % 0.00 in
21:31 46.2 °F 39.4 °F 30.09 in SE 1.9 mph 4.0 mph 77 % 0.00 in
21:36 46.3 °F 39.5 °F 30.09 in SSE 3.0 mph 4.6 mph 77 % 0.00 in
21:41 46.3 °F 39.5 °F 30.09 in SE 3.3 mph 5.8 mph 77 % 0.00 in
21:46 46.4 °F 39.6 °F 30.09 in Calm   1.2 mph 77 % 0.00 in
21:51 46.4 °F 39.6 °F 30.09 in SE 2.8 mph 4.0 mph 77 % 0.00 in
21:56 46.4 °F 39.6 °F 30.08 in Calm     77 % 0.00 in
22:01 46.5 °F 39.7 °F 30.09 in SE 0.7 mph 3.5 mph 77 % 0.00 in
22:06 46.5 °F 39.7 °F 30.09 in SE 1.4 mph 3.5 mph 77 % 0.00 in
22:11 46.5 °F 39.7 °F 30.08 in SE 0.3 mph 2.3 mph 77 % 0.00 in
22:16 46.5 °F 39.7 °F 30.08 in SE 0.1 mph 1.2 mph 77 % 0.00 in
22:21 46.5 °F 39.7 °F 30.08 in Calm   2.3 mph 77 % 0.00 in
22:22 46.5 °F 39.7 °F 30.08 in Calm   2.3 mph 77 % 0.00 in
22:23 46.5 °F 39.7 °F 30.08 in SE 0.4 mph 3.5 mph 77 % 0.00 in
22:28 46.5 °F 39.7 °F 30.08 in SE 0.2 mph 1.0 mph 77 % 0.00 in
22:33 46.5 °F 39.7 °F 30.08 in SE 1.3 mph 3.5 mph 77 % 0.00 in
22:38 46.6 °F 39.8 °F 30.07 in SE 2.4 mph 4.0 mph 77 % 0.00 in
22:43 46.5 °F 39.7 °F 30.07 in SE 0.7 mph 3.5 mph 77 % 0.00 in
22:48 46.6 °F 39.8 °F 30.07 in Calm   1.2 mph 77 % 0.00 in
22:54 46.6 °F 39.8 °F 30.07 in SE 0.9 mph 2.3 mph 77 % 0.00 in
22:59 46.6 °F 39.8 °F 30.07 in SE 1.4 mph 3.5 mph 77 % 0.00 in
23:04 46.6 °F 39.8 °F 30.07 in SE 1.6 mph 3.5 mph 77 % 0.00 in
23:09 46.5 °F 39.7 °F 30.06 in SE 0.6 mph 4.6 mph 77 % 0.00 in
23:14 46.5 °F 39.7 °F 30.06 in SE 1.9 mph 3.5 mph 77 % 0.00 in
23:19 46.5 °F 39.7 °F 30.06 in SE 1.2 mph 3.5 mph 77 % 0.00 in
23:24 46.5 °F 39.7 °F 30.06 in SE 0.2 mph 1.2 mph 77 % 0.00 in
23:29 46.5 °F 39.7 °F 30.06 in SE 1.4 mph 3.5 mph 77 % 0.00 in
23:34 46.5 °F 39.7 °F 30.06 in SE 1.1 mph 3.5 mph 77 % 0.00 in
23:39 46.5 °F 39.7 °F 30.06 in SE 2.2 mph 5.8 mph 77 % 0.00 in
23:44 46.5 °F 39.7 °F 30.06 in SSE 0.1 mph 3.5 mph 77 % 0.00 in
23:49 46.5 °F 39.7 °F 30.05 in SE 1.0 mph 3.0 mph 77 % 0.00 in
23:54 46.5 °F 39.7 °F 30.05 in SE 0.4 mph 2.3 mph 77 % 0.00 in
23:59 46.5 °F 39.7 °F 30.05 in SE 0.8 mph 2.3 mph 77 % 0.00 in
Crab Meadow Weather
Compliments of Weather Underground - 3 mb

Script developed by  Jim McMurry - jmcmurry@mwt.net Adapted for the template by  Wim van der Kuil - Leuven-Template.eu

Weather Terms: Severe Thunderstorm Watch - Conditions are favorable for the development of severe thunderstorms in and close to the watch area. These watches are issued for large areas by the Storm Prediction Center in Norman, Oklahoma, and are usually valid for four to six hours.